Deadhorse Airport Deadhorse US
ICAO: PASC
IATA:
Category: Medium
Scheduled Services:

Elevation: 65 ft
TransAlt. 18000 ft.

Airport Communications:
ATIS:118.4
ANCHORAGE CNTR:134.4
CTAF:123.6
RDO:122.2
UNICOM:123

PASC Zoom In..

Runways:

(A) RW 05 length 6500 ft width 150 ft
ILS 109.30 / hdg 52

(B) RW 06 length 6500 ft width 100 ft
---- / hdg 52

(C) RW 23 length 6500 ft width 150 ft
---- / hdg 232

(D) RW 24 length 6500 ft width 100 ft
---- / hdg 232

Location; PASC
Day. 19 / Time. 20.53 Zulu
* Altimeter: 30.03
* Temperature: 08° c. 46.4°f.
* Wind from: 260° Speed 21 kn with Gusts up to 28 kn.
Dewpoint: 02° c.
Visibility: 10 Statute Miles.
Clouds: Scattered 3100 ft.
Clouds: Overcast 4000 ft.

PASC 192053Z 26021G28KT 10SM SCT031 OVC040 08/02 A3003 RMK AO2 PK WND 27028/2052 SLP170 60000 T00830022 53014


Wind From 260°
Speed 21 kn.

 
 
jpsmedia.com for Web Design worldairports.se 2018   terms of use